Time;durP1;ratioP1;P1;durP2;ratioP2;P2;SDS_P1;SDS_P2;PMS_P1;PMS_P2;Temp;Humidity;BMP_temperature;BMP_pressure;BME280_temperature;BME280_humidity;BME280_pressure;Samples;Min_cycle;Max_cycle;Signal;HPM_P1;HPM_P2
2023/12/28 00:01:28;;;;;;;5.83;2.13;;;;;;;;;;5020880;28;20104;-61
2023/12/28 00:03:54;;;;;;;3.80;1.77;;;;;;;;;;5027306;28;20064;-61
2023/12/28 00:06:19;;;;;;;9.03;2.70;;;;;;;;;;5022058;28;20479;-61
2023/12/28 00:08:44;;;;;;;6.73;2.10;;;;;;;;;;5026806;28;20474;-61
2023/12/28 00:11:09;;;;;;;4.57;1.77;;;;;;;;;;5022479;28;20029;-61
2023/12/28 00:13:35;;;;;;;3.77;1.80;;;;;;;;;;5023788;28;20497;-62
2023/12/28 00:16:00;;;;;;;4.97;2.20;;;;;;;;;;5025388;28;20025;-62
2023/12/28 00:18:26;;;;;;;4.97;2.10;;;;;;;;;;5025337;28;20048;-62
2023/12/28 00:20:51;;;;;;;4.37;1.93;;;;;;;;;;5024412;28;20014;-61
2023/12/28 00:23:16;;;;;;;4.43;1.70;;;;;;;;;;5026753;28;20382;-62
2023/12/28 00:25:42;;;;;;;5.00;1.93;;;;;;;;;;5023515;28;20042;-61
2023/12/28 00:28:07;;;;;;;5.77;2.10;;;;;;;;;;5024554;28;20091;-62
2023/12/28 00:30:32;;;;;;;4.43;1.87;;;;;;;;;;5023520;28;20029;-61
2023/12/28 00:32:58;;;;;;;4.90;1.90;;;;;;;;;;5027218;28;20523;-62
2023/12/28 00:35:23;;;;;;;4.90;2.10;;;;;;;;;;5028757;28;20021;-62
2023/12/28 00:37:48;;;;;;;5.20;1.80;;;;;;;;;;5022404;28;20028;-62
2023/12/28 00:40:14;;;;;;;5.03;2.13;;;;;;;;;;5023006;28;20033;-62
2023/12/28 00:42:40;;;;;;;5.07;1.90;;;;;;;;;;5028901;28;20028;-62
2023/12/28 00:45:06;;;;;;;4.77;2.30;;;;;;;;;;5028780;28;20033;-62
2023/12/28 00:47:31;;;;;;;4.03;2.10;;;;;;;;;;5028377;28;20040;-62
2023/12/28 00:49:57;;;;;;;5.23;2.40;;;;;;;;;;5024028;28;20033;-62
2023/12/28 00:52:22;;;;;;;5.00;1.90;;;;;;;;;;5019049;28;20036;-62
2023/12/28 00:54:47;;;;;;;6.73;2.30;;;;;;;;;;5025736;28;20526;-62
2023/12/28 00:57:12;;;;;;;4.40;1.93;;;;;;;;;;5026360;28;20026;-62
2023/12/28 00:59:38;;;;;;;5.10;1.73;;;;;;;;;;5021929;28;20100;-62
2023/12/28 01:02:03;;;;;;;5.93;1.80;;;;;;;;;;5023465;28;20025;-62
2023/12/28 01:04:28;;;;;;;6.53;2.30;;;;;;;;;;5020930;28;20498;-62
2023/12/28 01:06:53;;;;;;;5.20;1.90;;;;;;;;;;5029745;28;20037;-63
2023/12/28 01:09:19;;;;;;;5.17;2.10;;;;;;;;;;5023273;28;20112;-60
2023/12/28 01:11:44;;;;;;;4.47;1.90;;;;;;;;;;5019625;28;20041;-61
2023/12/28 01:14:09;;;;;;;5.13;2.07;;;;;;;;;;5020806;28;20513;-61
2023/12/28 01:16:35;;;;;;;5.97;2.37;;;;;;;;;;5027195;28;20070;-61
2023/12/28 01:19:01;;;;;;;8.57;2.60;;;;;;;;;;5022553;28;20021;-60
2023/12/28 01:21:28;;;;;;;4.97;2.47;;;;;;;;;;5021034;28;20049;-61
2023/12/28 01:23:54;;;;;;;5.23;2.10;;;;;;;;;;5022599;28;20121;-60
2023/12/28 01:26:19;;;;;;;5.43;2.47;;;;;;;;;;5027097;28;20136;-61
2023/12/28 01:28:44;;;;;;;5.13;2.27;;;;;;;;;;5023521;28;20040;-61
2023/12/28 01:31:10;;;;;;;5.73;2.23;;;;;;;;;;5011465;28;20067;-61
2023/12/28 01:33:35;;;;;;;3.37;1.73;;;;;;;;;;5022940;28;20485;-61
2023/12/28 01:36:01;;;;;;;4.83;1.90;;;;;;;;;;5024339;28;20022;-61
2023/12/28 01:38:26;;;;;;;4.63;2.27;;;;;;;;;;5021703;28;20026;-61
2023/12/28 01:40:52;;;;;;;3.60;1.90;;;;;;;;;;5023131;28;20102;-61
2023/12/28 01:43:17;;;;;;;3.97;2.13;;;;;;;;;;5021828;28;20030;-61
2023/12/28 01:45:43;;;;;;;5.67;2.43;;;;;;;;;;5022971;28;20501;-61
2023/12/28 01:48:08;;;;;;;4.50;2.03;;;;;;;;;;5020969;28;20021;-61
2023/12/28 01:50:34;;;;;;;6.93;2.43;;;;;;;;;;5023761;28;20022;-61
2023/12/28 01:53:00;;;;;;;4.97;1.77;;;;;;;;;;5024340;28;20021;-61
2023/12/28 01:55:26;;;;;;;4.77;2.07;;;;;;;;;;5020947;28;20017;-62
2023/12/28 01:57:51;;;;;;;4.40;2.23;;;;;;;;;;5020142;28;20044;-61
2023/12/28 02:00:17;;;;;;;6.50;2.47;;;;;;;;;;5018133;28;20064;-61
2023/12/28 02:02:42;;;;;;;6.63;2.73;;;;;;;;;;5014861;28;20026;-61
2023/12/28 02:05:10;;;;;;;6.20;2.80;;;;;;;;;;5021092;28;20022;-61
2023/12/28 02:07:36;;;;;;;6.40;2.30;;;;;;;;;;5018510;28;20018;-62
2023/12/28 02:10:01;;;;;;;7.30;2.53;;;;;;;;;;5018400;28;20032;-61
2023/12/28 02:12:27;;;;;;;8.20;2.70;;;;;;;;;;5015494;28;20025;-61
2023/12/28 02:14:52;;;;;;;6.70;2.80;;;;;;;;;;5023828;28;20099;-61
2023/12/28 02:17:23;;;;;;;6.20;2.33;;;;;;;;;;5019753;28;20583;-62
2023/12/28 02:19:54;;;;;;;4.75;1.85;;;;;;;;;;5020856;28;20554;-62
2023/12/28 02:22:21;;;;;;;4.93;2.10;;;;;;;;;;5016310;28;20065;-61
2023/12/28 02:25:05;;;;;;;4.77;2.20;;;;;;;;;;5025949;28;20025;-62
2023/12/28 02:27:30;;;;;;;4.90;2.50;;;;;;;;;;4983347;28;20038;-61
2023/12/28 02:29:59;;;;;;;5.83;2.30;;;;;;;;;;4981253;28;20099;-62
2023/12/28 02:32:50;;;;;;;5.83;2.70;;;;;;;;;;4981647;28;20034;-61
2023/12/28 02:35:17;;;;;;;6.25;2.33;;;;;;;;;;4972566;28;20034;-62
2023/12/28 02:37:45;;;;;;;4.07;1.90;;;;;;;;;;4987788;28;20057;-61
2023/12/28 02:40:11;;;;;;;6.63;2.70;;;;;;;;;;4983594;28;20030;-61
2023/12/28 02:42:36;;;;;;;5.43;2.40;;;;;;;;;;4987265;28;20019;-61
2023/12/28 02:45:01;;;;;;;6.60;2.10;;;;;;;;;;4982617;28;20022;-64
2023/12/28 02:47:26;;;;;;;6.83;2.70;;;;;;;;;;4982011;28;20394;-64
2023/12/28 02:49:52;;;;;;;5.20;2.40;;;;;;;;;;4982878;28;20049;-61
2023/12/28 02:52:17;;;;;;;6.70;2.63;;;;;;;;;;4985886;28;20022;-62
2023/12/28 02:54:42;;;;;;;5.97;2.70;;;;;;;;;;4981634;28;20030;-61
2023/12/28 02:57:08;;;;;;;5.83;2.77;;;;;;;;;;4981566;28;20035;-61
2023/12/28 02:59:33;;;;;;;5.90;2.70;;;;;;;;;;4983418;28;20097;-62
2023/12/28 03:01:58;;;;;;;5.83;2.50;;;;;;;;;;4989271;28;20023;-61
2023/12/28 03:04:23;;;;;;;7.50;2.30;;;;;;;;;;4985189;28;20463;-62
2023/12/28 03:06:49;;;;;;;5.67;2.40;;;;;;;;;;4988365;28;20107;-61
2023/12/28 03:09:14;;;;;;;5.20;2.60;;;;;;;;;;4981627;28;20027;-62
2023/12/28 03:11:39;;;;;;;4.60;2.30;;;;;;;;;;4984917;28;20053;-62
2023/12/28 03:14:04;;;;;;;6.37;2.60;;;;;;;;;;4986575;28;20049;-61
2023/12/28 03:16:30;;;;;;;5.73;2.60;;;;;;;;;;4988829;28;20019;-61
2023/12/28 03:18:55;;;;;;;7.37;2.57;;;;;;;;;;4978974;28;20078;-61
2023/12/28 03:21:20;;;;;;;6.10;2.53;;;;;;;;;;4984242;28;20035;-62
2023/12/28 03:23:45;;;;;;;6.80;2.40;;;;;;;;;;4983944;28;20438;-62
2023/12/28 03:26:11;;;;;;;7.83;3.00;;;;;;;;;;5006746;28;20065;-62
2023/12/28 03:28:36;;;;;;;8.00;2.40;;;;;;;;;;5025830;28;20025;-62
2023/12/28 03:31:02;;;;;;;5.70;2.80;;;;;;;;;;5025340;28;20074;-62
2023/12/28 03:33:27;;;;;;;6.60;2.70;;;;;;;;;;5028887;28;20390;-62
2023/12/28 03:35:52;;;;;;;6.33;2.47;;;;;;;;;;5027448;28;20033;-61
2023/12/28 03:38:18;;;;;;;5.23;2.63;;;;;;;;;;5022717;28;20026;-62
2023/12/28 03:40:46;;;;;;;5.40;2.23;;;;;;;;;;5026836;28;20029;-61
2023/12/28 03:43:12;;;;;;;6.43;2.73;;;;;;;;;;5021963;28;20026;-62
2023/12/28 03:45:37;;;;;;;6.30;2.27;;;;;;;;;;5027179;28;20051;-62
2023/12/28 03:48:03;;;;;;;4.80;2.47;;;;;;;;;;5024716;28;20445;-62
2023/12/28 03:50:28;;;;;;;6.03;2.57;;;;;;;;;;5023939;28;20037;-62
2023/12/28 03:52:53;;;;;;;7.90;3.00;;;;;;;;;;5026939;28;20029;-62
2023/12/28 03:55:19;;;;;;;5.33;2.50;;;;;;;;;;5023945;28;20021;-62
2023/12/28 03:57:46;;;;;;;6.63;2.87;;;;;;;;;;5027259;28;20032;-62
2023/12/28 04:00:11;;;;;;;8.23;2.93;;;;;;;;;;5028092;28;20041;-62
2023/12/28 04:02:36;;;;;;;5.23;2.83;;;;;;;;;;5025277;28;20072;-62
2023/12/28 04:05:02;;;;;;;5.87;2.07;;;;;;;;;;5023500;28;20033;-62
2023/12/28 04:07:27;;;;;;;8.07;2.90;;;;;;;;;;5021139;28;20431;-61
2023/12/28 04:09:53;;;;;;;7.50;2.80;;;;;;;;;;5025125;28;20034;-61
2023/12/28 04:12:18;;;;;;;6.50;2.53;;;;;;;;;;5026335;28;20022;-61
2023/12/28 04:14:43;;;;;;;6.13;3.00;;;;;;;;;;5022810;28;20386;-61
2023/12/28 04:17:08;;;;;;;8.70;2.80;;;;;;;;;;5019865;28;20065;-61
2023/12/28 04:19:34;;;;;;;5.00;2.70;;;;;;;;;;5022365;28;20044;-61
2023/12/28 04:21:59;;;;;;;7.20;3.07;;;;;;;;;;5024180;28;20026;-61
2023/12/28 04:24:24;;;;;;;8.70;2.27;;;;;;;;;;5024102;28;20573;-61
2023/12/28 04:26:49;;;;;;;5.83;3.00;;;;;;;;;;5015660;28;20046;-61
2023/12/28 04:29:15;;;;;;;8.00;2.77;;;;;;;;;;5021657;28;20057;-61
2023/12/28 04:31:43;;;;;;;5.00;2.50;;;;;;;;;;5029437;28;20041;-61
2023/12/28 04:34:08;;;;;;;7.30;2.90;;;;;;;;;;5029840;28;20021;-61
2023/12/28 04:36:39;;;;;;;5.43;1.93;;;;;;;;;;5019746;28;20026;-61
2023/12/28 04:39:04;;;;;;;6.33;2.97;;;;;;;;;;5018881;28;20479;-61
2023/12/28 04:41:30;;;;;;;6.10;2.50;;;;;;;;;;5026718;28;20033;-61
2023/12/28 04:43:55;;;;;;;4.87;2.57;;;;;;;;;;5027710;28;20038;-61
2023/12/28 04:46:20;;;;;;;5.53;2.47;;;;;;;;;;5019605;28;20387;-61
2023/12/28 04:48:46;;;;;;;10.27;3.30;;;;;;;;;;5027538;28;20048;-61
2023/12/28 04:51:11;;;;;;;6.53;2.73;;;;;;;;;;5024115;28;20037;-61
2023/12/28 04:53:36;;;;;;;6.43;2.70;;;;;;;;;;5021739;28;20025;-61
2023/12/28 04:56:01;;;;;;;6.27;2.57;;;;;;;;;;5025029;28;20014;-61
2023/12/28 04:58:26;;;;;;;5.77;2.50;;;;;;;;;;5024084;28;20359;-61
2023/12/28 05:00:52;;;;;;;6.60;2.63;;;;;;;;;;5022484;28;20026;-61
2023/12/28 05:03:17;;;;;;;6.30;2.33;;;;;;;;;;5024313;28;20033;-61
2023/12/28 05:05:42;;;;;;;5.37;2.43;;;;;;;;;;5026972;28;20029;-60
2023/12/28 05:08:08;;;;;;;8.73;2.73;;;;;;;;;;5023709;28;20029;-61
2023/12/28 05:10:33;;;;;;;8.70;2.90;;;;;;;;;;5024819;28;20056;-61
2023/12/28 05:12:58;;;;;;;7.37;2.93;;;;;;;;;;5022870;28;20029;-61
2023/12/28 05:15:23;;;;;;;6.03;2.30;;;;;;;;;;5024741;28;20029;-60
2023/12/28 05:17:50;;;;;;;5.00;2.20;;;;;;;;;;5021059;28;20028;-61
2023/12/28 05:20:15;;;;;;;7.23;2.83;;;;;;;;;;5025590;28;20045;-61
2023/12/28 05:22:41;;;;;;;6.43;2.70;;;;;;;;;;5019524;28;20553;-61
2023/12/28 05:25:07;;;;;;;4.63;2.00;;;;;;;;;;5023329;28;20382;-60
2023/12/28 05:27:32;;;;;;;5.63;2.40;;;;;;;;;;5015382;28;20395;-61
2023/12/28 05:29:57;;;;;;;5.17;2.47;;;;;;;;;;5024056;28;20033;-61
2023/12/28 05:32:23;;;;;;;7.30;2.10;;;;;;;;;;5029965;28;20057;-61
2023/12/28 05:34:49;;;;;;;7.33;2.37;;;;;;;;;;5018501;28;20033;-60
2023/12/28 05:37:15;;;;;;;6.73;2.33;;;;;;;;;;5021438;28;20498;-60
2023/12/28 05:39:40;;;;;;;7.07;2.70;;;;;;;;;;5016181;28;20025;-60
2023/12/28 05:42:05;;;;;;;5.77;2.57;;;;;;;;;;5023851;28;20368;-61
2023/12/28 05:44:30;;;;;;;7.30;2.33;;;;;;;;;;5020254;28;20493;-60
2023/12/28 05:46:57;;;;;;;10.37;2.50;;;;;;;;;;5020714;28;20038;-60
2023/12/28 05:49:22;;;;;;;6.33;2.50;;;;;;;;;;5023205;28;20029;-60
2023/12/28 05:51:48;;;;;;;6.73;2.80;;;;;;;;;;5024590;28;20036;-60
2023/12/28 05:54:13;;;;;;;8.47;2.30;;;;;;;;;;5019777;28;20025;-61
2023/12/28 05:56:38;;;;;;;5.73;2.10;;;;;;;;;;5020321;28;20048;-61
2023/12/28 05:59:03;;;;;;;11.00;2.47;;;;;;;;;;5022383;28;20108;-60
2023/12/28 06:01:29;;;;;;;5.03;2.10;;;;;;;;;;5025738;28;20087;-61
2023/12/28 06:03:54;;;;;;;7.23;1.83;;;;;;;;;;5021213;28;20482;-61
2023/12/28 06:06:20;;;;;;;6.37;2.10;;;;;;;;;;5022542;28;20029;-61
2023/12/28 06:08:45;;;;;;;6.53;1.60;;;;;;;;;;5021501;28;20467;-61
2023/12/28 06:11:11;;;;;;;6.33;2.00;;;;;;;;;;5024096;28;20078;-61
2023/12/28 06:13:36;;;;;;;4.97;1.63;;;;;;;;;;5021419;28;20449;-61
2023/12/28 06:16:01;;;;;;;7.60;1.87;;;;;;;;;;5023473;28;20387;-61
2023/12/28 06:18:27;;;;;;;8.10;2.13;;;;;;;;;;5023825;28;20053;-60
2023/12/28 06:20:52;;;;;;;4.20;1.97;;;;;;;;;;5020423;28;20026;-60
2023/12/28 06:23:17;;;;;;;6.87;1.97;;;;;;;;;;5023137;28;20467;-61
2023/12/28 06:25:42;;;;;;;7.43;1.77;;;;;;;;;;5022550;28;20451;-60
2023/12/28 06:28:08;;;;;;;8.77;2.23;;;;;;;;;;5021110;28;20048;-60
2023/12/28 06:30:33;;;;;;;7.97;1.93;;;;;;;;;;5021541;28;20061;-61
2023/12/28 06:32:58;;;;;;;5.97;1.93;;;;;;;;;;5021574;28;20388;-61
2023/12/28 06:35:24;;;;;;;11.97;2.00;;;;;;;;;;5016748;28;20102;-61
2023/12/28 06:37:49;;;;;;;7.63;2.20;;;;;;;;;;5025780;28;20028;-60
2023/12/28 06:40:14;;;;;;;8.07;1.93;;;;;;;;;;5023860;28;20038;-61
2023/12/28 06:42:43;;;;;;;13.60;2.53;;;;;;;;;;5016649;28;20030;-60
2023/12/28 06:45:08;;;;;;;7.63;2.47;;;;;;;;;;5022689;28;20025;-60
2023/12/28 06:47:33;;;;;;;6.07;1.70;;;;;;;;;;5020107;28;20717;-61
2023/12/28 06:49:59;;;;;;;8.30;1.70;;;;;;;;;;5023149;28;20053;-61
2023/12/28 06:52:24;;;;;;;9.13;2.50;;;;;;;;;;5018355;28;20026;-60
2023/12/28 06:54:50;;;;;;;5.33;1.33;;;;;;;;;;5027295;28;20021;-60
2023/12/28 06:57:16;;;;;;;9.13;1.60;;;;;;;;;;5017466;28;20441;-60
2023/12/28 06:59:41;;;;;;;8.23;1.80;;;;;;;;;;5029762;28;20022;-60
2023/12/28 07:02:06;;;;;;;6.83;1.90;;;;;;;;;;5021834;28;20029;-60
2023/12/28 07:04:32;;;;;;;5.33;1.33;;;;;;;;;;5019661;28;20048;-61
2023/12/28 07:06:58;;;;;;;8.47;2.10;;;;;;;;;;5019216;28;20037;-61
2023/12/28 07:09:23;;;;;;;6.13;1.93;;;;;;;;;;5023563;28;20399;-61
2023/12/28 07:11:48;;;;;;;7.30;1.60;;;;;;;;;;5022029;28;20518;-61
2023/12/28 07:14:14;;;;;;;6.43;1.90;;;;;;;;;;5019679;28;20034;-60
2023/12/28 07:16:39;;;;;;;8.03;1.60;;;;;;;;;;5020790;28;20041;-61
2023/12/28 07:19:04;;;;;;;4.43;1.50;;;;;;;;;;5024731;28;20386;-61
2023/12/28 07:21:29;;;;;;;9.47;2.03;;;;;;;;;;5021063;28;20033;-61
2023/12/28 07:23:55;;;;;;;6.97;1.73;;;;;;;;;;5021097;28;20025;-61
2023/12/28 07:26:20;;;;;;;8.47;2.00;;;;;;;;;;5021963;28;20061;-60
2023/12/28 07:28:48;;;;;;;6.97;1.27;;;;;;;;;;5026252;28;20072;-61
2023/12/28 07:31:22;;;;;;;6.80;2.07;;;;;;;;;;5022564;28;20498;-61
2023/12/28 07:33:47;;;;;;;6.80;1.50;;;;;;;;;;5019236;28;20470;-61
2023/12/28 07:36:12;;;;;;;5.50;1.50;;;;;;;;;;5026499;28;20026;-60
2023/12/28 07:38:38;;;;;;;6.83;1.63;;;;;;;;;;5023873;28;20013;-61
2023/12/28 07:41:04;;;;;;;11.40;1.90;;;;;;;;;;5020813;28;20030;-61
2023/12/28 07:43:29;;;;;;;8.20;1.67;;;;;;;;;;5020016;28;20044;-61
2023/12/28 07:45:55;;;;;;;6.50;1.53;;;;;;;;;;5026886;28;20041;-61
2023/12/28 07:48:20;;;;;;;7.80;1.83;;;;;;;;;;5025774;28;20392;-61
2023/12/28 07:50:45;;;;;;;9.00;2.00;;;;;;;;;;5020482;28;20038;-61
2023/12/28 07:53:10;;;;;;;12.87;1.37;;;;;;;;;;5018670;28;20060;-61
2023/12/28 07:55:36;;;;;;;5.00;1.23;;;;;;;;;;5024857;28;20082;-61
2023/12/28 07:58:01;;;;;;;9.73;1.77;;;;;;;;;;5029125;28;20026;-60
2023/12/28 08:00:26;;;;;;;13.70;2.17;;;;;;;;;;5026743;28;20032;-62
2023/12/28 08:02:51;;;;;;;5.30;1.63;;;;;;;;;;5026307;28;20029;-60
2023/12/28 08:05:16;;;;;;;9.83;1.63;;;;;;;;;;5019505;28;20159;-61
2023/12/28 08:07:55;;;;;;;6.93;1.67;;;;;;;;;;5028264;28;20041;-65
2023/12/28 08:10:20;;;;;;;10.73;1.60;;;;;;;;;;5018969;28;20041;-63
2023/12/28 08:12:46;;;;;;;7.40;1.80;;;;;;;;;;5020080;28;20546;-62
2023/12/28 08:15:11;;;;;;;7.77;1.63;;;;;;;;;;5021925;28;20029;-62
2023/12/28 08:17:36;;;;;;;4.40;1.20;;;;;;;;;;5027712;28;20057;-61
2023/12/28 08:20:02;;;;;;;7.37;1.37;;;;;;;;;;5027563;28;20458;-62
2023/12/28 08:22:28;;;;;;;7.77;1.77;;;;;;;;;;5023288;28;20463;-62
2023/12/28 08:24:53;;;;;;;7.17;1.90;;;;;;;;;;5021861;28;20030;-62
2023/12/28 08:27:18;;;;;;;7.43;1.70;;;;;;;;;;5025991;28;20045;-62
2023/12/28 08:29:43;;;;;;;6.47;2.17;;;;;;;;;;5027713;28;20118;-62
2023/12/28 08:32:10;;;;;;;6.20;1.20;;;;;;;;;;5026977;28;20033;-63
2023/12/28 08:34:35;;;;;;;8.40;1.57;;;;;;;;;;5029026;28;20025;-62
2023/12/28 08:37:00;;;;;;;7.23;1.43;;;;;;;;;;5027242;28;20033;-62
2023/12/28 08:39:26;;;;;;;7.43;1.60;;;;;;;;;;5024427;28;20021;-61
2023/12/28 08:41:51;;;;;;;9.70;1.50;;;;;;;;;;5026069;28;21004;-62
2023/12/28 08:44:16;;;;;;;8.57;2.33;;;;;;;;;;5024627;28;20394;-61
2023/12/28 08:46:41;;;;;;;6.57;1.80;;;;;;;;;;5025093;28;20030;-61
2023/12/28 08:49:07;;;;;;;9.37;1.70;;;;;;;;;;5021423;28;20026;-62
2023/12/28 08:51:32;;;;;;;18.03;2.00;;;;;;;;;;5021298;28;20493;-62
2023/12/28 08:53:57;;;;;;;12.53;1.67;;;;;;;;;;5019601;28;20375;-62
2023/12/28 08:56:23;;;;;;;5.90;1.43;;;;;;;;;;5025193;28;20025;-62
2023/12/28 08:58:48;;;;;;;8.13;1.50;;;;;;;;;;5015759;28;20033;-62
2023/12/28 09:01:17;;;;;;;4.73;1.37;;;;;;;;;;5018629;28;20471;-61
2023/12/28 09:03:43;;;;;;;9.00;1.67;;;;;;;;;;5023081;28;20026;-62
2023/12/28 09:06:08;;;;;;;7.73;1.20;;;;;;;;;;5021527;28;20030;-61
2023/12/28 09:08:33;;;;;;;7.87;1.50;;;;;;;;;;5018210;28;20057;-61
2023/12/28 09:10:58;;;;;;;4.27;1.27;;;;;;;;;;5020304;28;20412;-62
2023/12/28 09:13:24;;;;;;;7.63;1.57;;;;;;;;;;5021359;28;20123;-61
2023/12/28 09:15:50;;;;;;;6.03;1.53;;;;;;;;;;5022847;28;20026;-60
2023/12/28 09:18:15;;;;;;;9.33;1.60;;;;;;;;;;5023968;28;20045;-61
2023/12/28 09:20:41;;;;;;;5.80;1.40;;;;;;;;;;5021890;28;20029;-61
2023/12/28 09:23:07;;;;;;;11.43;1.80;;;;;;;;;;5016712;28;20394;-62
2023/12/28 09:25:32;;;;;;;7.67;1.90;;;;;;;;;;5024818;28;20053;-61
2023/12/28 09:27:58;;;;;;;13.07;1.90;;;;;;;;;;5027536;28;20893;-61
2023/12/28 09:30:23;;;;;;;9.03;1.70;;;;;;;;;;5024317;28;20029;-61
2023/12/28 09:32:48;;;;;;;6.33;1.37;;;;;;;;;;5020826;28;20119;-62
2023/12/28 09:35:13;;;;;;;8.03;1.93;;;;;;;;;;5023050;28;20083;-61
2023/12/28 09:37:39;;;;;;;10.30;1.90;;;;;;;;;;5025000;28;20028;-60
2023/12/28 09:40:04;;;;;;;6.57;1.70;;;;;;;;;;5025976;28;20432;-61
2023/12/28 09:42:32;;;;;;;5.83;1.20;;;;;;;;;;5022427;28;20041;-61
2023/12/28 09:44:57;;;;;;;7.73;1.90;;;;;;;;;;5024242;28;20028;-61
2023/12/28 09:47:23;;;;;;;6.30;1.57;;;;;;;;;;5022599;28;20100;-62
2023/12/28 09:49:48;;;;;;;7.83;1.80;;;;;;;;;;5022441;28;20427;-62
2023/12/28 09:52:14;;;;;;;7.33;1.60;;;;;;;;;;5025120;28;20025;-62
2023/12/28 09:54:39;;;;;;;8.13;1.70;;;;;;;;;;5026085;28;20073;-61
2023/12/28 09:57:05;;;;;;;13.17;2.13;;;;;;;;;;5017641;28;20040;-61
2023/12/28 09:59:31;;;;;;;7.83;1.53;;;;;;;;;;5019001;28;21651;-61
2023/12/28 10:01:57;;;;;;;8.30;1.33;;;;;;;;;;5022812;28;20022;-62
2023/12/28 10:04:22;;;;;;;9.10;2.00;;;;;;;;;;5027794;28;20026;-61
2023/12/28 10:06:47;;;;;;;8.33;1.70;;;;;;;;;;5015489;28;20040;-62
2023/12/28 10:09:13;;;;;;;13.60;2.20;;;;;;;;;;5021981;28;20049;-62
2023/12/28 10:11:38;;;;;;;11.30;2.07;;;;;;;;;;5018358;28;20111;-61
2023/12/28 10:14:04;;;;;;;6.43;1.77;;;;;;;;;;5001090;28;20713;-61
2023/12/28 10:16:29;;;;;;;8.93;1.80;;;;;;;;;;5023352;28;20030;-61
2023/12/28 10:18:55;;;;;;;14.33;1.87;;;;;;;;;;5015057;28;20088;-61
2023/12/28 10:21:20;;;;;;;7.73;1.43;;;;;;;;;;5016679;28;20025;-61
2023/12/28 10:23:45;;;;;;;7.60;1.60;;;;;;;;;;5018726;28;20108;-61
2023/12/28 10:26:11;;;;;;;3.80;1.30;;;;;;;;;;5017783;28;20089;-61
2023/12/28 10:28:39;;;;;;;12.50;3.20;;;;;;;;;;5019499;28;20442;-61
2023/12/28 10:31:05;;;;;;;8.27;1.60;;;;;;;;;;5023845;28;20100;-61
2023/12/28 10:33:36;;;;;;;11.17;2.00;;;;;;;;;;5019137;28;20022;-61
2023/12/28 10:36:01;;;;;;;;;;;;;;;;;;5025614;28;20104;-61
2023/12/28 10:38:32;;;;;;;8.75;1.95;;;;;;;;;;5020676;28;20001;-61
2023/12/28 10:40:58;;;;;;;10.35;1.67;;;;;;;;;;5020164;28;20121;-62
2023/12/28 10:43:23;;;;;;;6.77;1.37;;;;;;;;;;5020013;28;20120;-61
2023/12/28 10:45:50;;;;;;;7.80;1.37;;;;;;;;;;5022547;28;20033;-62
2023/12/28 10:48:21;;;;;;;8.73;1.60;;;;;;;;;;5026501;28;20037;-61
2023/12/28 10:50:49;;;;;;;6.30;1.65;;;;;;;;;;5025264;28;20017;-61
2023/12/28 10:53:33;;;;;;;9.70;1.70;;;;;;;;;;5022082;28;20026;-62
2023/12/28 10:56:11;;;;;;;12.70;1.97;;;;;;;;;;5021263;28;20032;-62
2023/12/28 10:58:36;;;;;;;7.87;2.17;;;;;;;;;;5020600;28;20018;-61
2023/12/28 11:01:04;;;;;;;13.90;1.63;;;;;;;;;;5024417;28;20453;-61
2023/12/28 11:03:31;;;;;;;6.37;1.37;;;;;;;;;;5021936;28;20055;-61
2023/12/28 11:05:56;;;;;;;10.97;1.90;;;;;;;;;;5019236;28;20029;-61
2023/12/28 11:08:22;;;;;;;8.33;1.67;;;;;;;;;;5020229;28;20112;-61
2023/12/28 11:10:50;;;;;;;10.07;1.67;;;;;;;;;;5021662;28;20022;-61
2023/12/28 11:13:16;;;;;;;8.23;1.60;;;;;;;;;;5020093;28;20030;-61
2023/12/28 11:15:41;;;;;;;9.60;1.60;;;;;;;;;;5019597;28;20030;-61
2023/12/28 11:18:07;;;;;;;11.90;1.80;;;;;;;;;;5016031;28;20040;-61
2023/12/28 11:20:33;;;;;;;12.83;2.17;;;;;;;;;;5018016;28;20025;-61
2023/12/28 11:22:58;;;;;;;10.10;1.83;;;;;;;;;;5025634;28;20022;-61
2023/12/28 11:25:30;;;;;;;8.83;1.63;;;;;;;;;;5025357;28;20072;-63
2023/12/28 11:27:56;;;;;;;11.10;1.53;;;;;;;;;;5016044;28;20029;-61
2023/12/28 11:30:25;;;;;;;9.23;1.73;;;;;;;;;;5018849;28;20022;-61
2023/12/28 11:32:55;;;;;;;8.63;1.80;;;;;;;;;;5025503;28;20025;-61
2023/12/28 11:35:20;;;;;;;11.10;2.17;;;;;;;;;;5035587;28;20496;-61
2023/12/28 11:37:51;;;;;;;9.57;1.57;;;;;;;;;;5017924;28;20018;-61
2023/12/28 11:40:16;;;;;;;13.87;1.70;;;;;;;;;;5023187;28;20022;-62
2023/12/28 11:42:54;;;;;;;14.80;1.83;;;;;;;;;;5024149;28;20025;-61
2023/12/28 11:45:20;;;;;;;11.13;2.13;;;;;;;;;;5024348;28;20092;-61
2023/12/28 11:47:45;;;;;;;8.63;1.50;;;;;;;;;;5023272;28;20021;-61
2023/12/28 11:50:12;;;;;;;14.27;2.33;;;;;;;;;;5023112;28;20080;-64
2023/12/28 11:52:37;;;;;;;7.60;1.60;;;;;;;;;;5025709;28;20025;-61
2023/12/28 11:55:04;;;;;;;4.70;1.30;;;;;;;;;;5027136;28;20013;-61
2023/12/28 11:57:29;;;;;;;10.30;1.70;;;;;;;;;;5025022;28;20080;-61
2023/12/28 11:59:58;;;;;;;12.33;2.17;;;;;;;;;;5024276;28;20009;-61
2023/12/28 12:02:26;;;;;;;11.67;1.73;;;;;;;;;;5026793;28;20084;-61
2023/12/28 12:04:57;;;;;;;14.17;1.90;;;;;;;;;;5025189;28;20080;-61
2023/12/28 12:07:22;;;;;;;10.77;1.87;;;;;;;;;;5029969;28;20020;-61
2023/12/28 12:09:47;;;;;;;9.83;1.70;;;;;;;;;;5024402;28;20017;-61
2023/12/28 12:12:15;;;;;;;13.53;1.87;;;;;;;;;;5029118;28;20040;-61
2023/12/28 12:14:41;;;;;;;5.53;1.20;;;;;;;;;;5023610;28;20108;-62
2023/12/28 12:17:06;;;;;;;11.23;1.70;;;;;;;;;;5023547;28;20100;-62
2023/12/28 12:19:31;;;;;;;12.97;1.57;;;;;;;;;;5025824;28;20025;-61
2023/12/28 12:21:58;;;;;;;14.23;1.93;;;;;;;;;;5014769;28;20041;-61
2023/12/28 12:24:24;;;;;;;12.37;2.57;;;;;;;;;;5021016;28;20116;-61
2023/12/28 12:26:50;;;;;;;12.40;1.93;;;;;;;;;;5020310;28;20481;-61
2023/12/28 12:29:15;;;;;;;11.33;1.70;;;;;;;;;;5021522;28;20458;-61
2023/12/28 12:31:42;;;;;;;13.33;1.80;;;;;;;;;;5020838;28;20081;-61
2023/12/28 12:34:08;;;;;;;7.57;1.40;;;;;;;;;;5021136;28;20526;-61
2023/12/28 12:36:33;;;;;;;20.77;2.30;;;;;;;;;;5018537;28;20072;-61
2023/12/28 12:38:59;;;;;;;11.30;1.50;;;;;;;;;;5018952;28;20022;-62
2023/12/28 12:41:25;;;;;;;10.93;1.60;;;;;;;;;;5033683;28;20021;-61
2023/12/28 12:43:50;;;;;;;7.93;1.63;;;;;;;;;;5021078;28;20045;-61
2023/12/28 12:46:16;;;;;;;9.10;1.40;;;;;;;;;;5030991;28;20145;-61
2023/12/28 12:48:41;;;;;;;13.13;1.70;;;;;;;;;;5018782;28;20575;-61
2023/12/28 12:51:06;;;;;;;11.50;2.07;;;;;;;;;;5021633;28;20475;-62
2023/12/28 12:53:35;;;;;;;8.13;1.70;;;;;;;;;;5026769;28;20049;-62
2023/12/28 12:56:00;;;;;;;7.73;1.60;;;;;;;;;;5022143;28;20076;-61
2023/12/28 12:58:27;;;;;;;7.33;1.80;;;;;;;;;;5019895;28;20426;-61
2023/12/28 13:00:52;;;;;;;11.33;1.93;;;;;;;;;;5026725;28;20536;-61
2023/12/28 13:03:19;;;;;;;13.90;2.10;;;;;;;;;;5026513;28;20021;-61
2023/12/28 13:05:45;;;;;;;10.80;2.10;;;;;;;;;;5025180;28;20033;-61
2023/12/28 13:08:10;;;;;;;11.47;1.73;;;;;;;;;;5022855;28;20355;-61
2023/12/28 13:10:36;;;;;;;8.73;1.40;;;;;;;;;;5023342;28;20018;-61
2023/12/28 13:13:01;;;;;;;11.20;1.63;;;;;;;;;;5025713;28;20029;-61
2023/12/28 13:15:26;;;;;;;8.20;1.77;;;;;;;;;;5023667;28;20556;-61
2023/12/28 13:17:53;;;;;;;11.53;1.73;;;;;;;;;;5027181;28;20022;-61
2023/12/28 13:20:18;;;;;;;9.57;1.60;;;;;;;;;;5027673;28;20017;-61
2023/12/28 13:22:43;;;;;;;8.47;1.80;;;;;;;;;;5019959;28;20013;-61
2023/12/28 13:25:08;;;;;;;19.53;2.20;;;;;;;;;;5022635;28;20489;-61
2023/12/28 13:27:34;;;;;;;15.87;2.10;;;;;;;;;;5025114;28;20103;-61
2023/12/28 13:29:59;;;;;;;7.33;1.67;;;;;;;;;;5027993;28;20013;-61
2023/12/28 13:32:24;;;;;;;12.80;1.93;;;;;;;;;;5016775;28;20034;-62
2023/12/28 13:34:53;;;;;;;14.70;2.00;;;;;;;;;;5016645;28;20098;-62
2023/12/28 13:37:18;;;;;;;20.43;1.97;;;;;;;;;;5019898;28;20026;-61
2023/12/28 13:39:43;;;;;;;9.00;1.53;;;;;;;;;;5024057;28;20378;-61
2023/12/28 13:42:08;;;;;;;9.20;2.27;;;;;;;;;;5017819;28;20089;-61
2023/12/28 13:44:35;;;;;;;8.33;1.50;;;;;;;;;;5017860;28;20033;-62
2023/12/28 13:47:00;;;;;;;7.13;1.70;;;;;;;;;;5016592;28;20029;-61
2023/12/28 13:49:26;;;;;;;8.53;2.00;;;;;;;;;;5017725;28;20029;-61
2023/12/28 13:51:51;;;;;;;11.20;2.47;;;;;;;;;;5021875;28;20038;-61
2023/12/28 13:54:19;;;;;;;13.37;1.80;;;;;;;;;;5019295;28;20049;-62
2023/12/28 13:56:44;;;;;;;11.37;1.60;;;;;;;;;;5020705;28;20018;-62
2023/12/28 13:59:10;;;;;;;8.33;1.33;;;;;;;;;;5020963;28;20541;-62
2023/12/28 14:01:35;;;;;;;12.23;1.53;;;;;;;;;;5023932;28;20057;-61
2023/12/28 14:04:00;;;;;;;13.03;2.57;;;;;;;;;;5021146;28;20057;-61
2023/12/28 14:06:25;;;;;;;10.83;1.60;;;;;;;;;;5019896;28;20036;-62
2023/12/28 14:08:51;;;;;;;17.60;2.53;;;;;;;;;;5022209;28;20018;-62
2023/12/28 14:11:16;;;;;;;15.13;2.80;;;;;;;;;;5024198;28;20033;-61
2023/12/28 14:13:41;;;;;;;14.03;2.23;;;;;;;;;;5022763;28;20146;-61
2023/12/28 14:16:08;;;;;;;12.03;2.17;;;;;;;;;;5021139;28;20068;-62
2023/12/28 14:18:33;;;;;;;7.30;1.60;;;;;;;;;;5021079;28;20475;-61
2023/12/28 14:20:58;;;;;;;13.33;2.03;;;;;;;;;;5023505;28;20123;-61
2023/12/28 14:23:24;;;;;;;15.40;2.43;;;;;;;;;;5023473;28;20142;-61
2023/12/28 14:25:53;;;;;;;9.33;1.80;;;;;;;;;;5022544;28;20499;-61
2023/12/28 14:28:18;;;;;;;10.70;1.63;;;;;;;;;;5022848;28;20047;-62
2023/12/28 14:30:44;;;;;;;10.87;1.73;;;;;;;;;;5023188;28;20037;-62
2023/12/28 14:33:10;;;;;;;10.43;2.30;;;;;;;;;;5022400;28;20052;-61